Time;durP1;ratioP1;P1;durP2;ratioP2;P2;SDS_P1;SDS_P2;PMS_P1;PMS_P2;Temp;Humidity;BMP_temperature;BMP_pressure;BME280_temperature;BME280_humidity;BME280_pressure;Samples;Min_cycle;Max_cycle;Signal;HPM_P1;HPM_P2
2022/06/19 00:01:11;;;;;;;10.73;3.83;;;28.70;45.60;;;-142.21;44.86;112049.66;5051879;28;21083;-73
2022/06/19 00:03:45;;;;;;;9.77;3.43;;;28.60;45.70;;;-142.21;44.92;112049.66;5052366;28;20210;-72
2022/06/19 00:06:13;;;;;;;7.13;3.20;;;28.50;45.90;;;-142.21;45.66;112049.66;5035467;28;20235;-73
2022/06/19 00:08:41;;;;;;;10.90;3.97;;;28.40;46.10;;;-142.21;45.89;112049.66;5032215;28;20212;-74
2022/06/19 00:11:11;;;;;;;10.80;4.27;;;28.40;46.20;;;-142.21;46.52;112049.66;5031736;28;20254;-74
2022/06/19 00:13:40;;;;;;;9.70;3.67;;;28.30;46.50;;;-142.21;47.11;112049.66;5032240;28;20272;-73
2022/06/19 00:16:08;;;;;;;10.20;3.50;;;28.20;46.90;;;-142.21;47.19;112049.66;5031805;28;20206;-73
2022/06/19 00:18:38;;;;;;;11.20;3.63;;;28.10;46.90;;;-142.21;47.27;112049.66;5032603;28;20315;-73
2022/06/19 00:21:06;;;;;;;8.17;3.60;;;28.10;47.10;;;-142.21;48.65;112049.66;5031800;28;20201;-73
2022/06/19 00:23:33;;;;;;;8.77;3.33;;;28.00;47.20;;;-142.21;48.92;112049.66;5031983;28;20701;-73
2022/06/19 00:26:00;;;;;;;6.43;3.60;;;28.00;48.10;;;-142.21;48.56;112049.66;5045505;28;20229;-73
2022/06/19 00:28:30;;;;;;;5.10;3.13;;;27.90;47.30;;;-142.21;48.58;112049.66;5051894;28;20316;-74
2022/06/19 00:30:59;;;;;;;11.03;3.40;;;27.90;47.60;;;-142.21;49.45;112049.66;5051267;28;20300;-74
2022/06/19 00:33:28;;;;;;;7.37;3.23;;;27.80;47.60;;;-142.21;50.86;112049.66;5033439;28;20211;-74
2022/06/19 00:35:55;;;;;;;9.80;3.60;;;27.80;48.10;;;-142.21;51.54;112049.66;5032941;28;20231;-73
2022/06/19 00:38:22;;;;;;;8.87;3.80;;;27.70;48.20;;;-142.21;51.46;112049.66;5032257;28;20231;-73
2022/06/19 00:40:50;;;;;;;8.07;3.30;;;27.70;48.10;;;-142.21;51.48;112049.66;5032518;28;20610;-74
2022/06/19 00:43:17;;;;;;;6.43;3.00;;;27.60;48.20;;;-142.21;52.88;112049.66;5031147;28;20249;-74
2022/06/19 00:45:50;;;;;;;11.10;3.57;;;27.60;48.50;;;-142.21;52.85;112049.66;5047800;28;20320;-74
2022/06/19 00:48:27;;;;;;;8.67;3.97;;;27.50;48.80;;;-142.21;53.57;112049.66;5051588;28;20643;-74
2022/06/19 00:50:59;;;;;;;9.40;3.30;;;27.50;49.00;;;-142.21;54.60;112049.66;5051448;28;20196;-73
2022/06/19 00:53:35;;;;;;;12.37;4.53;;;27.40;49.10;;;-142.21;55.15;112049.66;5060277;28;20200;-74
2022/06/19 00:56:08;;;;;;;9.67;5.50;;;27.40;49.40;;;-142.21;55.44;112049.66;5053782;28;20657;-73
2022/06/19 00:58:41;;;;;;;6.97;3.47;;;27.30;49.30;;;-142.21;55.40;112049.66;5057877;28;20313;-74
2022/06/19 01:01:17;;;;;;;8.97;3.67;;;27.30;49.60;;;-142.21;56.33;112049.66;5046822;28;20208;-71
2022/06/19 01:03:54;;;;;;;7.30;3.37;;;27.20;49.80;;;-142.21;56.67;112049.66;5035941;28;20195;-73
2022/06/19 01:06:23;;;;;;;7.13;3.30;;;27.10;50.10;;;-142.21;57.08;112049.66;5036007;28;20195;-73
2022/06/19 01:08:52;;;;;;;8.83;3.70;;;27.10;50.10;;;-142.21;56.90;112049.66;5055757;28;20302;-71
2022/06/19 01:11:22;;;;;;;10.23;3.53;;;27.00;50.10;;;-142.21;58.45;112049.66;5074834;28;20304;-72
2022/06/19 01:13:52;;;;;;;8.33;3.43;;;27.00;50.30;;;-142.21;58.19;112049.66;5075590;28;20190;-72
2022/06/19 01:16:19;;;;;;;6.23;3.50;;;27.00;50.40;;;-142.21;58.76;112049.66;5075238;28;20212;-74
2022/06/19 01:18:48;;;;;;;6.93;3.27;;;27.00;50.60;;;-142.21;60.29;112049.66;5075236;28;20228;-75
2022/06/19 01:21:26;;;;;;;5.53;3.63;;;26.90;50.80;;;-142.21;60.27;112049.66;5054831;28;20206;-78
2022/06/19 01:24:04;;;;;;;11.63;4.13;;;26.90;51.10;;;-142.21;61.22;112049.66;5055560;28;20224;-68
2022/06/19 01:26:40;;;;;;;7.50;3.43;;;26.80;51.30;;;-142.21;61.81;112049.66;5055294;28;20288;-72
2022/06/19 01:29:08;;;;;;;6.13;3.63;;;26.80;51.50;;;-142.21;62.40;112049.66;5054087;28;20291;-71
2022/06/19 01:31:45;;;;;;;8.97;3.83;;;26.70;51.50;;;-142.21;63.44;112049.66;5050463;28;20298;-68
2022/06/19 01:34:32;;;;;;;7.93;3.40;;;26.70;51.90;;;-142.21;60.76;112049.66;5042480;28;20205;-77
2022/06/19 01:37:08;;;;;;;9.83;3.93;;;26.60;51.20;;;-142.21;60.64;112049.66;5064324;28;20206;-75
2022/06/19 01:39:42;;;;;;;6.80;3.50;;;26.60;51.40;;;-142.21;60.51;112049.66;5054326;28;20224;-75
2022/06/19 01:42:12;;;;;;;6.03;3.17;;;26.50;51.40;;;-142.21;60.95;112049.66;5054112;28;20280;-74
2022/06/19 01:44:42;;;;;;;10.50;3.73;;;26.50;51.30;;;-142.21;62.02;112049.66;5053989;28;20279;-77
2022/06/19 01:47:09;;;;;;;9.30;3.73;;;26.40;51.40;;;-142.21;62.69;112049.66;5065271;28;20657;-75
2022/06/19 01:49:45;;;;;;;8.57;3.27;;;26.40;51.50;;;-142.21;63.18;112049.66;5054577;28;20209;-74
2022/06/19 01:52:12;;;;;;;4.87;3.20;;;26.30;51.90;;;-142.21;64.04;112049.66;5053564;28;20202;-75
2022/06/19 01:54:44;;;;;;;7.77;3.37;;;26.30;51.80;;;-142.21;64.63;112049.66;5054604;28;20206;-76
2022/06/19 01:57:15;;;;;;;7.10;3.63;;;26.20;51.90;;;-142.21;65.72;112049.66;5042963;28;20210;-75
2022/06/19 01:59:46;;;;;;;8.33;3.53;;;26.20;52.30;;;-142.21;65.77;112049.66;5043654;28;20575;-77
2022/06/19 02:02:17;;;;;;;11.20;4.07;;;26.20;52.30;;;-142.21;66.81;112049.66;5053046;28;20212;-76
2022/06/19 02:04:46;;;;;;;8.00;3.30;;;26.20;52.60;;;-142.21;66.11;112049.66;5053594;28;20212;-76
2022/06/19 02:07:20;;;;;;;6.77;3.53;;;26.10;52.50;;;-142.21;66.79;112049.66;5059804;28;20730;-77
2022/06/19 02:09:51;;;;;;;9.10;3.30;;;26.10;52.70;;;-142.21;66.60;112049.66;5044098;28;20196;-74
2022/06/19 02:12:21;;;;;;;8.27;3.93;;;26.10;52.80;;;-142.21;67.57;112049.66;5054072;28;20209;-77
2022/06/19 02:14:48;;;;;;;5.97;3.13;;;26.10;52.90;;;-142.21;68.08;112049.66;5054391;28;20646;-75
2022/06/19 02:17:23;;;;;;;7.70;3.63;;;26.10;53.00;;;-142.21;68.62;112049.66;5052909;28;20220;-77
2022/06/19 02:19:50;;;;;;;8.37;3.30;;;26.00;53.20;;;-142.21;69.43;112049.66;5053363;28;20221;-76
2022/06/19 02:22:17;;;;;;;8.30;3.17;;;26.00;53.40;;;-142.21;70.03;112049.66;5052510;28;20212;-77
2022/06/19 02:24:46;;;;;;;8.30;3.30;;;26.00;53.50;;;-142.21;69.80;112049.66;5054068;28;20289;-76
2022/06/19 02:27:15;;;;;;;6.47;3.63;;;26.00;53.70;;;-142.21;69.79;112049.66;5053556;28;20210;-76
2022/06/19 02:29:44;;;;;;;10.10;3.53;;;25.90;53.80;;;-142.21;69.82;112049.66;5054030;28;20233;-77
2022/06/19 02:32:21;;;;;;;9.67;3.73;;;25.90;53.70;;;-142.21;70.21;112049.66;5054126;28;20570;-75
2022/06/19 02:34:50;;;;;;;10.23;3.80;;;25.90;54.10;;;-142.21;70.52;112049.66;5054167;28;20277;-76
2022/06/19 02:37:21;;;;;;;11.50;4.43;;;25.90;53.70;;;-142.21;70.19;112049.66;5053134;28;20221;-75
2022/06/19 02:39:59;;;;;;;10.07;3.50;;;25.90;54.40;;;-142.21;70.00;112049.66;5053445;28;20213;-75
2022/06/19 02:42:36;;;;;;;7.07;3.30;;;25.80;53.90;;;-142.21;69.70;112049.66;5034140;28;20186;-76
2022/06/19 02:45:11;;;;;;;6.93;3.53;;;25.80;53.90;;;-142.21;70.30;112049.66;5052060;28;20233;-74
2022/06/19 02:47:40;;;;;;;9.23;3.57;;;25.80;54.00;;;-142.21;70.75;112049.66;5053141;28;20203;-75
2022/06/19 02:50:12;;;;;;;7.67;3.47;;;25.70;54.00;;;-142.21;71.07;112049.66;5051734;28;20206;-74
2022/06/19 02:52:39;;;;;;;9.30;4.00;;;25.60;54.30;;;-142.21;72.00;112049.66;5044510;28;20198;-76
2022/06/19 02:55:09;;;;;;;9.27;3.70;;;25.60;54.30;;;-142.21;72.59;112049.66;5044613;28;20304;-74
2022/06/19 02:57:37;;;;;;;8.40;3.70;;;25.50;54.40;;;-142.21;73.65;112049.66;5034250;28;20253;-78
2022/06/19 03:00:09;;;;;;;7.67;3.40;;;25.50;54.60;;;-142.21;73.17;112049.66;5052178;28;20241;-74
2022/06/19 03:02:37;;;;;;;6.17;3.33;;;25.40;54.50;;;-142.21;71.86;112049.66;5053016;28;20718;-77
2022/06/19 03:05:11;;;;;;;11.77;3.40;;;25.40;54.10;;;-142.21;71.72;112049.66;5052901;28;20243;-78
2022/06/19 03:07:38;;;;;;;10.37;4.73;;;25.30;54.40;;;-142.21;71.08;112049.66;5052316;28;20642;-78
2022/06/19 03:10:06;;;;;;;8.93;3.33;;;25.40;54.30;;;-142.21;71.41;112049.66;5052489;28;20211;-77
2022/06/19 03:12:33;;;;;;;8.07;3.83;;;25.40;54.40;;;-142.21;71.99;112049.66;5053115;28;20662;-78
2022/06/19 03:15:01;;;;;;;11.40;3.90;;;25.40;55.00;;;-142.21;72.46;112049.66;5052738;28;20205;-77
2022/06/19 03:17:29;;;;;;;8.33;3.70;;;25.40;54.70;;;-142.21;72.51;112049.66;5018469;28;20568;-76
2022/06/19 03:19:57;;;;;;;10.60;4.20;;;25.30;54.60;;;-142.21;72.59;112049.66;5053149;28;20574;-76
2022/06/19 03:22:24;;;;;;;8.10;3.53;;;25.30;54.70;;;-142.21;73.12;112049.66;5052155;28;20207;-76
2022/06/19 03:24:52;;;;;;;8.53;3.43;;;25.30;54.70;;;-142.21;73.15;112049.66;5047801;28;20210;-76
2022/06/19 03:27:19;;;;;;;6.57;3.57;;;25.30;54.90;;;-142.21;73.22;112049.66;5042237;28;20202;-76
2022/06/19 03:29:47;;;;;;;7.90;4.17;;;25.30;55.00;;;-142.21;73.45;112049.66;5048759;28;20324;-75
2022/06/19 03:32:15;;;;;;;7.53;3.47;;;25.20;55.10;;;-142.21;73.90;112049.66;5033118;28;20742;-76
2022/06/19 03:34:44;;;;;;;6.43;3.13;;;25.20;55.20;;;-142.21;74.41;112049.66;5033473;28;20551;-77
2022/06/19 03:37:12;;;;;;;8.33;3.30;;;25.20;55.40;;;-142.21;74.48;112049.66;5043166;28;20671;-78
2022/06/19 03:39:39;;;;;;;9.47;4.10;;;25.20;55.40;;;-142.21;75.09;112049.66;5042416;28;20230;-77
2022/06/19 03:42:09;;;;;;;7.47;4.17;;;25.20;55.80;;;-142.21;74.83;112049.66;5052189;28;20198;-77
2022/06/19 03:44:36;;;;;;;7.90;3.67;;;25.10;55.50;;;-142.21;75.95;112049.66;5036034;28;20225;-79
2022/06/19 03:47:05;;;;;;;6.63;3.30;;;25.10;55.70;;;-142.21;75.44;112049.66;5053025;28;20304;-77
2022/06/19 03:49:33;;;;;;;10.20;3.30;;;25.00;55.60;;;-142.21;75.28;112049.66;5039206;28;20289;-75
2022/06/19 03:52:01;;;;;;;8.50;3.47;;;25.00;55.40;;;-142.21;74.28;112049.66;5032569;28;20570;-75
2022/06/19 03:54:28;;;;;;;7.33;3.47;;;25.00;55.30;;;-142.21;75.40;112049.66;5043403;28;20202;-76
2022/06/19 03:56:55;;;;;;;7.10;3.33;;;25.00;55.40;;;-142.21;75.24;112049.66;5044587;28;20226;-76
2022/06/19 03:59:22;;;;;;;10.60;3.30;;;25.00;55.50;;;-142.21;74.93;112049.66;5032202;28;20226;-75
2022/06/19 04:01:50;;;;;;;9.10;3.23;;;25.00;55.50;;;-142.21;74.68;112049.66;5045144;28;20211;-74
2022/06/19 04:04:17;;;;;;;10.67;3.57;;;25.00;55.40;;;-142.21;75.00;112049.66;5050562;28;20216;-73
2022/06/19 04:06:46;;;;;;;4.77;3.17;;;25.00;55.30;;;-142.21;75.07;112049.66;5050881;28;20213;-73
2022/06/19 04:09:18;;;;;;;9.83;3.20;;;24.90;55.40;;;-142.21;75.52;112049.66;5046782;28;20279;-75
2022/06/19 04:11:49;;;;;;;9.23;3.23;;;25.00;55.70;;;-142.21;76.16;112049.66;5051106;28;20206;-73
2022/06/19 04:14:16;;;;;;;6.87;3.40;;;25.00;55.90;;;-142.21;75.55;112049.66;5047838;28;20308;-74
2022/06/19 04:16:44;;;;;;;9.23;3.40;;;25.00;55.80;;;-142.21;75.89;112049.66;5053110;28;20211;-75
2022/06/19 04:19:12;;;;;;;8.93;3.37;;;25.00;55.90;;;-142.21;76.58;112049.66;5051014;28;20324;-75
2022/06/19 04:21:44;;;;;;;6.87;3.67;;;25.00;56.00;;;-142.21;78.03;112049.66;5048362;28;20300;-75
2022/06/19 04:24:15;;;;;;;4.03;3.20;;;25.00;56.30;;;-142.21;79.82;112049.66;5038464;28;20197;-75
2022/06/19 04:26:43;;;;;;;6.00;3.40;;;25.10;57.00;;;-142.21;79.29;112049.66;5033037;28;20210;-76
2022/06/19 04:29:13;;;;;;;9.37;3.57;;;25.10;56.90;;;-142.21;79.41;112049.66;5049300;28;20263;-74
2022/06/19 04:31:40;;;;;;;6.77;3.10;;;25.10;56.90;;;-142.21;80.10;112049.66;5053207;28;20692;-74
2022/06/19 04:34:08;;;;;;;9.70;3.83;;;25.10;57.00;;;-142.21;79.37;112049.66;5070380;28;20202;-75
2022/06/19 04:36:35;;;;;;;9.97;3.77;;;25.20;57.10;;;-142.21;79.19;112049.66;5051034;28;20547;-76
2022/06/19 04:39:04;;;;;;;7.10;4.20;;;25.20;57.20;;;-142.21;77.51;112049.66;5055238;28;20227;-74
2022/06/19 04:41:36;;;;;;;9.43;4.40;;;25.10;56.80;;;-142.21;77.84;112049.66;5055968;28;20205;-75
2022/06/19 04:44:05;;;;;;;6.03;3.33;;;25.10;56.80;;;-142.21;78.68;112049.66;5055529;28;20627;-75
2022/06/19 04:46:33;;;;;;;6.17;3.63;;;25.20;56.90;;;-142.21;78.51;112049.66;5052555;28;20206;-74
2022/06/19 04:49:00;;;;;;;8.57;3.67;;;25.20;57.00;;;-142.21;79.25;112049.66;5039080;28;20202;-75
2022/06/19 04:51:27;;;;;;;7.47;3.70;;;25.20;57.20;;;-142.21;80.63;112049.66;5035106;28;20214;-74
2022/06/19 04:53:54;;;;;;;6.67;3.57;;;25.30;57.50;;;-142.21;80.04;112049.66;5029298;28;20201;-75
2022/06/19 04:56:23;;;;;;;8.93;4.27;;;25.30;57.40;;;-142.21;80.40;112049.66;5054731;28;20288;-76
2022/06/19 04:58:52;;;;;;;11.97;4.20;;;25.30;57.60;;;-142.21;81.34;112049.66;5055379;28;20206;-75
2022/06/19 05:01:25;;;;;;;9.30;3.33;;;25.40;58.20;;;-142.21;78.12;112049.66;5054596;28;20562;-75
2022/06/19 05:03:55;;;;;;;7.87;4.10;;;25.50;56.90;;;-142.21;76.66;112049.66;5051949;28;20281;-75
2022/06/19 05:06:23;;;;;;;9.13;3.50;;;25.50;56.40;;;-142.21;75.41;112049.66;5035157;28;20214;-78
2022/06/19 05:08:51;;;;;;;10.53;3.53;;;25.60;56.10;;;-142.21;75.03;112049.66;5052122;28;20217;-75
2022/06/19 05:11:20;;;;;;;8.43;3.77;;;25.60;55.90;;;-142.21;73.41;112049.66;5034979;28;20678;-75
2022/06/19 05:13:48;;;;;;;4.77;3.40;;;25.70;55.40;;;-142.21;72.11;112049.66;5050787;28;20551;-73
2022/06/19 05:16:23;;;;;;;7.80;3.90;;;25.80;55.20;;;-142.21;70.59;112049.66;5054712;28;20273;-74
2022/06/19 05:18:53;;;;;;;6.17;3.23;;;25.90;54.70;;;-142.21;70.85;112049.66;5054832;28;20205;-74
2022/06/19 05:21:21;;;;;;;7.37;3.53;;;26.00;54.70;;;-142.21;70.26;112049.66;5055138;28;20214;-74
2022/06/19 05:23:51;;;;;;;7.93;3.80;;;26.10;54.70;;;-142.21;70.04;112049.66;5054323;28;20197;-73
2022/06/19 05:26:22;;;;;;;9.83;3.83;;;26.20;54.50;;;-142.21;69.13;112049.66;5040588;28;20211;-76
2022/06/19 05:28:50;;;;;;;7.70;3.17;;;26.30;54.20;;;-142.21;69.28;112049.66;5046245;28;20237;-75
2022/06/19 05:31:19;;;;;;;7.93;3.30;;;26.40;54.00;;;-142.21;67.58;112049.66;5054047;28;20208;-75
2022/06/19 05:33:46;;;;;;;12.77;4.23;;;26.50;53.70;;;-142.21;66.50;112049.66;5037700;28;20218;-75
2022/06/19 05:36:15;;;;;;;10.20;3.30;;;26.50;53.30;;;-142.21;66.78;112049.66;5051039;28;20221;-75
2022/06/19 05:38:42;;;;;;;7.23;3.50;;;26.50;53.40;;;-142.21;66.58;112049.66;5035156;28;20211;-73
2022/06/19 05:41:10;;;;;;;8.93;3.47;;;26.60;53.90;;;-142.21;67.77;112049.66;5034934;28;20684;-74
2022/06/19 05:43:38;;;;;;;9.63;3.43;;;26.80;53.30;;;-142.21;67.93;112049.66;5042003;28;20198;-75
2022/06/19 05:46:08;;;;;;;6.60;3.47;;;26.80;53.40;;;-142.21;66.88;112049.66;5054419;28;20226;-73
2022/06/19 05:48:40;;;;;;;6.77;3.37;;;26.90;53.10;;;-142.21;65.42;112049.66;5056454;28;20197;-75
2022/06/19 05:51:10;;;;;;;7.43;3.33;;;27.00;52.80;;;-142.21;64.46;112049.66;5035435;28;20216;-74
2022/06/19 05:53:42;;;;;;;6.23;3.63;;;27.10;52.50;;;-142.21;63.33;112049.66;5052963;28;20202;-75
2022/06/19 05:56:11;;;;;;;10.20;3.00;;;27.10;52.50;;;-142.21;63.12;112049.66;5054065;28;20667;-75
2022/06/19 05:58:41;;;;;;;6.80;3.53;;;27.20;52.50;;;-142.21;63.87;112049.66;5054511;28;20629;-74
2022/06/19 06:01:11;;;;;;;6.23;3.43;;;27.30;52.50;;;-142.21;61.99;112049.66;5042666;28;20234;-75
2022/06/19 06:03:41;;;;;;;8.30;3.80;;;27.40;51.90;;;-142.21;62.20;112049.66;5038922;28;20196;-74
2022/06/19 06:06:17;;;;;;;7.03;3.73;;;27.50;52.60;;;-142.21;63.55;112049.66;5054672;28;20219;-75
2022/06/19 06:08:45;;;;;;;11.10;4.13;;;27.60;52.20;;;-142.21;62.99;112049.66;5053870;28;20250;-75
2022/06/19 06:11:13;;;;;;;10.73;4.13;;;27.70;52.10;;;-142.21;63.48;112049.66;5050026;28;20566;-74
2022/06/19 06:13:40;;;;;;;10.13;3.90;;;27.80;51.90;;;-142.21;63.76;112049.66;5034450;28;20218;-75
2022/06/19 06:16:08;;;;;;;6.30;3.23;;;27.90;52.10;;;-142.21;64.29;112049.66;5042600;28;20210;-75
2022/06/19 06:18:35;;;;;;;7.00;3.50;;;28.00;52.10;;;-142.21;64.48;112049.66;5052975;28;20207;-76
2022/06/19 06:21:08;;;;;;;7.37;3.43;;;28.10;52.30;;;-142.21;64.12;112049.66;5053749;28;20231;-75
2022/06/19 06:23:36;;;;;;;7.70;3.23;;;28.20;52.00;;;-142.21;63.43;112049.66;5052865;28;20258;-74
2022/06/19 06:26:08;;;;;;;5.97;3.17;;;28.30;51.80;;;-142.21;61.65;112049.66;5053636;28;20226;-74
2022/06/19 06:28:37;;;;;;;8.53;3.40;;;28.40;51.40;;;-142.21;60.06;112049.66;5053002;28;20294;-76
2022/06/19 06:31:04;;;;;;;5.67;3.63;;;28.50;51.00;;;-142.21;58.51;112049.66;5053287;28;20209;-75
2022/06/19 06:33:31;;;;;;;10.23;4.03;;;28.60;50.60;;;-142.21;58.90;112049.66;5052594;28;20204;-76
2022/06/19 06:36:00;;;;;;;16.13;4.37;;;28.70;50.60;;;-142.21;59.47;112049.66;5052971;28;20219;-75
2022/06/19 06:38:32;;;;;;;10.10;3.83;;;28.80;50.90;;;-142.21;58.51;112049.66;5044190;28;20291;-75
2022/06/19 06:41:00;;;;;;;10.30;3.63;;;28.80;50.70;;;-142.21;57.37;112049.66;5049775;28;20222;-75
2022/06/19 06:43:28;;;;;;;10.77;3.53;;;28.90;50.60;;;-142.21;57.26;112049.66;5033384;28;20300;-75
2022/06/19 06:45:55;;;;;;;17.97;4.07;;;28.90;50.60;;;-142.21;58.02;112049.66;5033364;28;20225;-75
2022/06/19 06:48:22;;;;;;;9.97;4.03;;;29.00;50.90;;;-142.21;55.40;112049.66;5033648;28;20290;-75
2022/06/19 06:50:53;;;;;;;7.30;3.33;;;29.20;50.30;;;-142.21;56.87;112049.66;5048494;28;20198;-75
2022/06/19 06:53:20;;;;;;;7.93;3.80;;;29.30;50.50;;;-142.21;55.00;112049.66;5051742;28;20239;-74
2022/06/19 06:55:48;;;;;;;10.53;4.03;;;29.40;49.90;;;-142.21;50.30;112049.66;5053538;28;20295;-74
2022/06/19 06:58:15;;;;;;;13.87;4.77;;;29.60;49.00;;;-142.21;46.25;112049.66;5051830;28;20739;-74
2022/06/19 07:00:43;;;;;;;9.53;3.60;;;29.80;47.50;;;-142.21;44.28;112049.66;5036887;28;20230;-75
2022/06/19 07:03:11;;;;;;;8.67;3.80;;;30.00;46.80;;;-142.21;44.34;112049.66;5036440;28;20666;-75
2022/06/19 07:05:38;;;;;;;11.30;4.30;;;30.20;46.90;;;-142.21;44.29;112049.66;5045523;28;20204;-75
2022/06/19 07:08:06;;;;;;;10.93;4.03;;;30.30;46.70;;;-142.21;43.05;112049.66;5052633;28;20304;-75
2022/06/19 07:10:34;;;;;;;9.53;4.00;;;30.60;46.20;;;-142.21;43.19;112049.66;5051722;28;20202;-75
2022/06/19 07:13:06;;;;;;;8.07;4.83;;;30.80;46.10;;;-142.21;42.19;112049.66;5051638;28;20201;-74
2022/06/19 07:15:33;;;;;;;9.67;3.97;;;30.90;45.50;;;-142.21;42.66;112049.66;5033739;28;20213;-74
2022/06/19 07:18:03;;;;;;;10.70;4.73;;;31.00;45.80;;;-142.21;40.87;112049.66;5033776;28;20202;-75
2022/06/19 07:20:30;;;;;;;11.00;5.13;;;31.20;45.00;;;-142.21;39.26;112049.66;5032648;28;20257;-75
2022/06/19 07:22:57;;;;;;;8.33;4.30;;;31.30;44.00;;;-142.21;39.63;112049.66;5039256;28;20661;-75
2022/06/19 07:25:26;;;;;;;10.13;4.50;;;31.40;44.00;;;-142.21;39.20;112049.66;5051688;28;20215;-76
2022/06/19 07:27:53;;;;;;;11.87;4.47;;;31.70;43.80;;;-142.21;38.69;112049.66;5052754;28;20662;-75
2022/06/19 07:30:25;;;;;;;7.60;3.83;;;31.80;43.30;;;-142.21;38.10;112049.66;5050917;28;20236;-74
2022/06/19 07:32:57;;;;;;;6.77;4.57;;;31.90;42.80;;;-142.21;37.22;112049.66;5050383;28;20216;-74
2022/06/19 07:35:25;;;;;;;10.57;4.80;;;32.00;41.80;;;-142.21;37.63;112049.66;5050427;28;20677;-75
2022/06/19 07:37:52;;;;;;;10.93;5.30;;;32.10;42.50;;;-142.21;37.08;112049.66;5051631;28;20205;-73
2022/06/19 07:40:22;;;;;;;10.53;4.63;;;32.20;42.10;;;-142.21;37.28;112049.66;5051786;28;20701;-74
2022/06/19 07:42:52;;;;;;;8.17;4.67;;;32.30;42.20;;;-142.21;37.19;112049.66;5052611;28;20191;-74
2022/06/19 07:45:19;;;;;;;11.17;5.27;;;32.50;42.00;;;-142.21;36.56;112049.66;5050960;28;20234;-75
2022/06/19 07:50:32;;;;;;;6.73;5.57;;;32.70;41.70;;;-142.21;36.08;112049.66;5052047;28;20194;-75
2022/06/19 07:52:59;;;;;;;6.70;5.20;;;32.70;41.00;;;-142.21;36.60;112049.66;5051763;28;20205;-75
2022/06/19 07:55:31;;;;;;;12.67;5.47;;;32.90;41.40;;;-142.21;35.84;112049.66;5051894;28;20216;-74
2022/06/19 07:58:00;;;;;;;7.17;5.20;;;33.00;40.50;;;-142.21;34.70;112049.66;5046035;28;20203;-74
2022/06/19 08:00:31;;;;;;;5.90;4.67;;;33.10;40.00;;;-142.21;33.98;112049.66;5049711;28;20218;-75
2022/06/19 08:03:00;;;;;;;6.60;5.13;;;33.20;39.40;;;-142.21;34.59;112049.66;5048644;28;20553;-75
2022/06/19 08:05:31;;;;;;;9.47;6.37;;;33.30;39.70;;;-142.21;34.59;112049.66;5050057;28;20592;-75
2022/06/19 08:08:02;;;;;;;8.03;5.10;;;33.50;39.50;;;-142.21;34.00;112049.66;5052482;28;20236;-74
2022/06/19 08:10:34;;;;;;;5.90;5.27;;;33.60;39.20;;;-142.21;33.55;112049.66;5051354;28;20209;-75
2022/06/19 08:13:01;;;;;;;6.70;5.33;;;33.80;38.70;;;-142.21;33.82;112049.66;5052142;28;20192;-76
2022/06/19 08:15:30;;;;;;;8.43;5.30;;;33.90;38.80;;;-142.21;33.46;112049.66;5049812;28;20200;-75
2022/06/19 08:17:59;;;;;;;9.97;5.17;;;34.00;38.40;;;-142.21;32.81;112049.66;5032230;28;20209;-75
2022/06/19 08:20:26;;;;;;;7.70;4.90;;;34.10;37.20;;;-142.21;33.49;112049.66;5044237;28;20228;-74
2022/06/19 08:22:54;;;;;;;7.17;5.63;;;34.10;38.20;;;-142.21;32.60;112049.66;5052128;28;20688;-75
2022/06/19 08:25:24;;;;;;;14.40;5.20;;;34.20;37.60;;;-142.21;32.57;112049.66;5051613;28;20205;-75
2022/06/19 08:27:53;;;;;;;7.93;5.70;;;34.20;37.20;;;-142.21;32.23;112049.66;5051880;28;20193;-75
2022/06/19 08:30:25;;;;;;;5.53;4.87;;;34.20;37.00;;;-142.21;32.55;112049.66;5044473;28;20284;-74
2022/06/19 08:32:53;;;;;;;9.33;5.17;;;34.30;37.10;;;-142.21;32.11;112049.66;5037801;28;20211;-75
2022/06/19 08:35:24;;;;;;;8.80;5.40;;;34.40;36.80;;;-142.21;31.44;112049.66;5046415;28;20271;-71
2022/06/19 08:37:58;;;;;;;8.30;5.23;;;34.40;36.10;;;-142.21;31.44;112049.66;5046943;28;20314;-74
2022/06/19 08:41:04;;;;;;;5.80;4.80;;;34.40;36.10;;;-142.21;31.18;112049.66;5051474;28;20209;-73
2022/06/19 08:43:58;;;;;;;7.30;4.80;;;34.40;35.50;;;-142.21;30.46;112049.66;5034563;28;20263;-74
2022/06/19 08:46:40;;;;;;;9.13;4.93;;;34.60;35.20;;;-142.21;30.93;112049.66;5031373;28;20189;-74
2022/06/19 08:49:48;;;;;;;6.53;4.90;;;34.50;35.50;;;-142.21;30.56;112049.66;5032195;28;20208;-77
2022/06/19 08:52:40;;;;;;;5.07;4.30;;;34.60;35.00;;;-142.21;30.85;112049.66;5032346;28;20194;-80
2022/06/19 08:55:25;;;;;;;9.23;5.20;;;34.60;35.30;;;-142.21;30.69;112049.66;5048777;28;20201;-75
2022/06/19 08:58:12;;;;;;;6.33;4.37;;;34.60;34.70;;;-142.21;29.86;112049.66;5033878;28;20216;-77
2022/06/19 09:00:52;;;;;;;7.47;4.77;;;34.60;33.80;;;-142.21;29.86;112049.66;5051655;28;20215;-77
2022/06/19 09:05:36;;;;;;;6.83;4.70;;;34.50;34.00;;;-142.21;30.09;112049.66;5051728;28;20214;-75
2022/06/19 09:06:32;;;;;;;6.03;4.67;;;34.50;34.40;;;-142.21;29.57;112049.66;5042005;28;20678;-73
2022/06/19 09:09:26;;;;;;;6.30;4.40;;;34.50;33.80;;;-142.21;29.79;112049.66;5031814;28;20606;-73
2022/06/19 09:12:24;;;;;;;8.77;4.60;;;34.60;34.20;;;-142.21;29.61;112049.66;5031573;28;20193;-73
2022/06/19 09:15:13;;;;;;;5.37;4.57;;;34.70;34.30;;;-142.21;29.84;112049.66;5035439;28;20640;-74
2022/06/19 09:17:56;;;;;;;9.30;4.37;;;34.90;34.30;;;-142.21;29.32;112049.66;5036111;28;20233;-74
2022/06/19 09:20:43;;;;;;;8.97;4.33;;;35.10;33.40;;;-142.21;29.48;112049.66;5052437;28;20275;-74
2022/06/19 09:23:43;;;;;;;5.53;4.00;;;35.20;33.70;;;-142.21;29.70;112049.66;5055031;28;20293;-72
2022/06/19 09:26:22;;;;;;;5.80;4.50;;;35.30;33.50;;;-142.21;28.89;112049.66;5054849;28;20642;-71
2022/06/19 09:28:58;;;;;;;5.63;4.83;;;35.50;33.20;;;-142.21;29.35;112049.66;5054743;28;20241;-75
2022/06/19 09:31:33;;;;;;;11.77;5.00;;;35.50;33.40;;;-142.21;29.55;112049.66;5020525;28;20262;-76
2022/06/19 09:34:10;;;;;;;8.60;4.40;;;35.60;33.20;;;-142.21;29.39;112049.66;5055454;28;20268;-75
2022/06/19 09:36:45;;;;;;;7.57;4.40;;;35.60;33.30;;;-142.21;29.77;112049.66;5054242;28;20248;-75
2022/06/19 09:39:23;;;;;;;7.80;4.63;;;35.60;33.50;;;-142.21;29.39;112049.66;5054478;28;20237;-75
2022/06/19 09:42:01;;;;;;;6.23;4.30;;;35.50;33.20;;;-142.21;29.88;112049.66;5054566;28;20730;-75
2022/06/19 09:44:39;;;;;;;6.57;5.20;;;35.60;33.80;;;-142.21;29.23;112049.66;5054566;28;20312;-76
2022/06/19 09:47:14;;;;;;;5.87;5.00;;;35.70;32.70;;;-142.21;29.30;112049.66;5036467;28;20243;-75
2022/06/19 09:49:53;;;;;;;5.47;4.73;;;35.60;32.90;;;-142.21;29.57;112049.66;5054129;28;20199;-75
2022/06/19 09:52:30;;;;;;;5.43;4.00;;;35.50;33.20;;;-142.21;29.68;112049.66;5068671;28;20200;-75
2022/06/19 09:55:10;;;;;;;5.37;4.53;;;35.60;33.50;;;-142.21;29.91;112049.66;5074872;28;20196;-75
2022/06/19 09:57:51;;;;;;;6.67;4.97;;;35.70;33.90;;;-142.21;29.57;112049.66;5074418;28;20206;-75
2022/06/19 10:00:26;;;;;;;7.53;4.50;;;35.90;33.10;;;-142.21;29.15;112049.66;5074659;28;20230;-75
2022/06/19 10:03:03;;;;;;;5.23;4.70;;;35.90;33.10;;;-142.21;29.17;112049.66;5070349;28;20199;-75
2022/06/19 10:05:39;;;;;;;7.53;4.70;;;36.00;33.50;;;-142.21;29.62;112049.66;5054043;28;20249;-75
2022/06/19 10:08:19;;;;;;;7.70;4.67;;;36.10;33.20;;;-142.21;29.19;112049.66;5054667;28;20192;-75
2022/06/19 10:10:55;;;;;;;6.40;4.57;;;36.10;32.90;;;-142.21;29.59;112049.66;5053869;28;20690;-76
2022/06/19 10:13:35;;;;;;;8.37;4.80;;;36.20;33.20;;;-142.21;30.27;112049.66;5052469;28;20211;-77
2022/06/19 10:16:27;;;;;;;6.27;4.77;;;36.20;33.60;;;-142.21;30.08;112049.66;5054040;28;20289;-75
2022/06/19 10:19:02;;;;;;;8.33;4.57;;;36.30;33.70;;;-142.21;29.53;112049.66;5054102;28;20195;-74